createdAt,value
2023-03-15T00:01:11.277Z,8.18
2023-03-15T00:03:39.729Z,8.19
2023-03-15T00:06:07.352Z,8.18
2023-03-15T00:08:34.464Z,8.18
2023-03-15T00:11:02.229Z,8.17
2023-03-15T00:13:31.845Z,8.17
2023-03-15T00:16:02.874Z,8.15
2023-03-15T00:18:30.610Z,8.19
2023-03-15T00:20:58.421Z,8.20
2023-03-15T00:23:25.905Z,8.20
2023-03-15T00:25:53.842Z,8.24
2023-03-15T00:28:21.401Z,8.30
2023-03-15T00:30:49.616Z,8.30
2023-03-15T00:33:17.104Z,8.32
2023-03-15T00:35:45.611Z,8.33
2023-03-15T00:38:14.176Z,8.33
2023-03-15T00:40:41.421Z,8.34
2023-03-15T00:43:08.320Z,8.37
2023-03-15T00:45:35.397Z,8.43
2023-03-15T00:48:04.207Z,8.51
2023-03-15T00:50:31.054Z,8.55
2023-03-15T00:52:57.924Z,8.58
2023-03-15T00:55:24.939Z,8.61
2023-03-15T00:57:52.053Z,8.60
2023-03-15T01:00:24.375Z,8.56
2023-03-15T01:02:52.156Z,8.53
2023-03-15T01:05:21.864Z,8.49
2023-03-15T01:07:49.506Z,8.47
2023-03-15T01:10:17.458Z,8.46
2023-03-15T01:12:45.233Z,8.44
2023-03-15T01:15:14.859Z,8.42
2023-03-15T01:17:43.008Z,8.41
2023-03-15T01:20:13.198Z,8.46
2023-03-15T01:22:41.441Z,8.54
2023-03-15T01:25:09.598Z,8.60
2023-03-15T01:27:37.382Z,8.66
2023-03-15T01:30:06.539Z,8.73
2023-03-15T01:32:33.920Z,8.78
2023-03-15T01:35:00.902Z,8.85
2023-03-15T01:37:27.861Z,8.88
2023-03-15T01:39:56.060Z,8.91
2023-03-15T01:42:23.079Z,8.97
2023-03-15T01:44:56.428Z,9.03
2023-03-15T01:47:27.069Z,9.08
2023-03-15T01:50:02.402Z,9.11
2023-03-15T01:52:35.724Z,9.13
2023-03-15T01:55:10.068Z,9.16
2023-03-15T01:57:41.548Z,9.19
2023-03-15T02:00:13.313Z,9.19
2023-03-15T02:02:49.048Z,9.20
2023-03-15T02:05:23.813Z,9.23
2023-03-15T02:07:54.419Z,9.25
2023-03-15T02:10:30.595Z,9.24
2023-03-15T02:12:59.416Z,9.21
2023-03-15T02:15:26.980Z,9.20
2023-03-15T02:17:53.994Z,9.19
2023-03-15T02:20:34.778Z,9.19
2023-03-15T02:23:06.511Z,9.22
2023-03-15T02:25:45.735Z,9.24
2023-03-15T02:28:16.700Z,9.25
2023-03-15T02:30:45.301Z,9.25
2023-03-15T02:33:22.355Z,9.21
2023-03-15T02:35:49.413Z,9.22
2023-03-15T02:38:16.380Z,9.18
2023-03-15T02:40:46.421Z,9.16
2023-03-15T02:43:19.658Z,9.11
2023-03-15T02:45:47.954Z,9.10
2023-03-15T02:48:16.459Z,9.06
2023-03-15T02:50:43.402Z,9.01
2023-03-15T02:53:12.220Z,8.98
2023-03-15T02:55:39.546Z,8.94
2023-03-15T02:58:06.486Z,8.90
2023-03-15T03:00:35.312Z,8.85
2023-03-15T03:03:02.190Z,8.77
2023-03-15T03:05:29.200Z,8.70
2023-03-15T03:07:56.169Z,8.64
2023-03-15T03:10:23.309Z,8.59
2023-03-15T03:12:53.433Z,8.55
2023-03-15T03:15:21.504Z,8.49
2023-03-15T03:17:49.766Z,8.46
2023-03-15T03:20:16.788Z,8.43
2023-03-15T03:22:44.787Z,8.39
2023-03-15T03:25:12.836Z,8.37
2023-03-15T03:27:40.959Z,8.35
2023-03-15T03:30:11.392Z,8.40
2023-03-15T03:32:39.557Z,8.45
2023-03-15T03:35:09.368Z,8.48
2023-03-15T03:37:36.367Z,8.53
2023-03-15T03:40:06.873Z,8.57
2023-03-15T03:42:34.318Z,8.62
2023-03-15T03:45:01.803Z,8.71
2023-03-15T03:47:28.705Z,8.74
2023-03-15T03:49:55.633Z,8.74
2023-03-15T03:52:23.990Z,8.74
2023-03-15T03:54:50.961Z,8.70
2023-03-15T03:57:17.871Z,8.65
2023-03-15T03:59:44.824Z,8.62
2023-03-15T04:02:11.862Z,8.59
2023-03-15T04:04:41.163Z,8.53
2023-03-15T04:07:08.670Z,8.49
2023-03-15T04:09:37.675Z,8.44
2023-03-15T04:12:06.103Z,8.42
2023-03-15T04:14:33.203Z,8.40
2023-03-15T04:17:03.660Z,8.40
2023-03-15T04:19:30.862Z,8.37
2023-03-15T04:21:57.834Z,8.35
2023-03-15T04:24:24.801Z,8.31
2023-03-15T04:26:57.718Z,8.30
2023-03-15T04:29:24.708Z,8.27
2023-03-15T04:31:51.666Z,8.27
2023-03-15T04:34:18.761Z,8.26
2023-03-15T04:36:45.675Z,8.24
2023-03-15T04:39:12.614Z,8.23
2023-03-15T04:41:39.575Z,8.24
2023-03-15T04:44:07.891Z,8.24
2023-03-15T04:46:34.865Z,8.22
2023-03-15T04:49:03.304Z,8.22
2023-03-15T04:51:30.371Z,8.22
2023-03-15T04:53:57.291Z,8.21
2023-03-15T04:56:24.193Z,8.18
2023-03-15T04:58:51.180Z,8.14
2023-03-15T05:01:19.563Z,8.08
2023-03-15T05:03:46.562Z,8.02
2023-03-15T05:06:13.545Z,7.96
2023-03-15T05:08:40.496Z,7.92
2023-03-15T05:11:07.370Z,7.89
2023-03-15T05:13:34.282Z,7.86
2023-03-15T05:16:01.202Z,7.83
2023-03-15T05:18:29.873Z,7.81
2023-03-15T05:20:57.019Z,7.79
2023-03-15T05:23:24.635Z,7.75
2023-03-15T05:25:55.501Z,7.73
2023-03-15T05:28:24.727Z,7.69
2023-03-15T05:30:53.092Z,7.66
2023-03-15T05:33:21.408Z,7.62
2023-03-15T05:35:49.735Z,7.58
2023-03-15T05:38:16.845Z,7.56
2023-03-15T05:40:45.017Z,7.55
2023-03-15T05:43:12.735Z,7.53
2023-03-15T05:45:40.974Z,7.51
2023-03-15T05:48:07.954Z,7.48
2023-03-15T05:50:36.211Z,7.45
2023-03-15T05:53:04.883Z,7.46
2023-03-15T05:55:31.997Z,7.47
2023-03-15T05:57:58.848Z,7.48
2023-03-15T06:00:25.990Z,7.49
2023-03-15T06:02:53.055Z,7.49
2023-03-15T06:05:19.957Z,7.50
2023-03-15T06:07:47.156Z,7.51
2023-03-15T06:10:15.947Z,7.53
2023-03-15T06:12:42.896Z,7.53
2023-03-15T06:15:11.205Z,7.53
2023-03-15T06:17:38.714Z,7.51
2023-03-15T06:20:06.767Z,7.51
2023-03-15T06:22:33.880Z,7.51
2023-03-15T06:25:00.784Z,7.53
2023-03-15T06:27:29.100Z,7.54
2023-03-15T06:29:57.293Z,7.55
2023-03-15T06:32:24.403Z,7.55
2023-03-15T06:34:52.846Z,7.55
2023-03-15T06:37:34.278Z,7.53
2023-03-15T06:40:07.135Z,7.56
2023-03-15T06:42:35.860Z,7.60
2023-03-15T06:45:03.365Z,7.63
2023-03-15T06:47:30.638Z,7.65
2023-03-15T06:49:57.902Z,7.71
2023-03-15T06:52:24.871Z,7.84
2023-03-15T06:54:51.772Z,8.03
2023-03-15T06:57:18.654Z,8.32
2023-03-15T06:59:47.035Z,8.69
2023-03-15T07:02:16.986Z,9.09
2023-03-15T07:04:45.253Z,9.44
2023-03-15T07:07:12.296Z,9.71
2023-03-15T07:09:40.729Z,9.79
2023-03-15T07:12:10.366Z,9.73
2023-03-15T07:14:37.598Z,9.70
2023-03-15T07:17:06.082Z,9.75
2023-03-15T07:19:33.000Z,9.99
2023-03-15T07:21:59.942Z,10.44
2023-03-15T07:24:28.265Z,10.95
2023-03-15T07:26:56.477Z,11.45
2023-03-15T07:29:24.487Z,11.79
2023-03-15T07:31:52.149Z,11.88
2023-03-15T07:34:21.653Z,11.99
2023-03-15T07:36:48.734Z,12.02
2023-03-15T07:39:16.081Z,11.88
2023-03-15T07:41:43.066Z,11.67
2023-03-15T07:44:09.986Z,11.44
2023-03-15T07:46:36.981Z,11.21
2023-03-15T07:49:04.334Z,11.08
2023-03-15T07:51:32.785Z,11.24
2023-03-15T07:53:59.696Z,11.61
2023-03-15T07:56:26.614Z,12.05
2023-03-15T07:58:53.554Z,12.38
2023-03-15T08:01:21.500Z,12.83
2023-03-15T08:03:48.461Z,13.39
2023-03-15T08:06:15.327Z,13.91
2023-03-15T08:08:43.528Z,14.51
2023-03-15T08:11:10.618Z,15.11
2023-03-15T08:13:37.536Z,15.54
2023-03-15T08:16:05.234Z,15.84
2023-03-15T08:18:32.194Z,15.99
2023-03-15T08:20:59.176Z,16.15
2023-03-15T08:23:26.511Z,16.35
2023-03-15T08:25:54.750Z,16.59
2023-03-15T08:28:21.658Z,16.94
2023-03-15T08:30:49.119Z,17.27
2023-03-15T08:33:16.158Z,17.66
2023-03-15T08:35:43.092Z,18.27
2023-03-15T08:38:10.081Z,19.10
2023-03-15T08:40:38.847Z,19.73
2023-03-15T08:43:07.735Z,20.41
2023-03-15T08:45:51.062Z,20.88
2023-03-15T08:48:21.877Z,21.14
2023-03-15T08:50:48.864Z,21.36
2023-03-15T08:53:15.840Z,21.87
2023-03-15T08:55:42.798Z,22.54
2023-03-15T08:58:13.008Z,23.02
2023-03-15T09:00:40.496Z,23.29
2023-03-15T09:03:07.450Z,23.57
2023-03-15T09:05:34.435Z,24.16
2023-03-15T09:08:01.916Z,24.15
2023-03-15T09:10:29.208Z,24.35
2023-03-15T09:12:56.234Z,24.49
2023-03-15T09:15:24.605Z,24.73
2023-03-15T09:17:52.463Z,24.93
2023-03-15T09:20:22.758Z,24.95
2023-03-15T09:22:52.738Z,25.03
2023-03-15T09:25:20.773Z,25.25
2023-03-15T09:27:48.229Z,25.60
2023-03-15T09:30:17.052Z,25.97
2023-03-15T09:32:46.178Z,25.75
2023-03-15T09:35:15.950Z,25.41
2023-03-15T09:37:43.005Z,25.14
2023-03-15T09:40:19.487Z,25.32
2023-03-15T09:43:01.336Z,25.72
2023-03-15T09:45:50.289Z,26.42
2023-03-15T09:48:27.549Z,27.03
2023-03-15T09:51:01.195Z,26.94
2023-03-15T09:53:33.901Z,26.47
2023-03-15T09:56:00.957Z,25.99
2023-03-15T09:58:32.768Z,25.21
2023-03-15T10:01:05.119Z,24.13
2023-03-15T10:03:45.742Z,22.80
2023-03-15T10:06:23.040Z,21.71
2023-03-15T10:08:56.551Z,21.42
2023-03-15T10:11:39.884Z,22.16
2023-03-15T10:14:28.056Z,22.98
2023-03-15T10:16:58.694Z,23.67
2023-03-15T10:19:39.630Z,24.13
2023-03-15T10:22:25.273Z,23.63
2023-03-15T10:24:59.250Z,22.54
2023-03-15T10:27:37.180Z,22.00
2023-03-15T10:30:17.530Z,20.84
2023-03-15T10:32:52.059Z,20.23
2023-03-15T10:35:21.564Z,18.77
2023-03-15T10:37:49.064Z,17.69
2023-03-15T10:40:40.393Z,16.57
2023-03-15T10:43:19.285Z,15.72
2023-03-15T10:46:01.996Z,14.91
2023-03-15T10:48:32.010Z,14.35
2023-03-15T10:51:06.416Z,13.80
2023-03-15T10:53:34.024Z,13.30
2023-03-15T10:56:05.064Z,12.83
2023-03-15T10:58:42.223Z,12.42
2023-03-15T11:01:25.413Z,12.07
2023-03-15T11:04:16.176Z,12.11
2023-03-15T11:06:49.138Z,11.87
2023-03-15T11:09:21.997Z,11.69
2023-03-15T11:12:03.633Z,11.69
2023-03-15T11:14:37.874Z,11.58
2023-03-15T11:17:07.472Z,11.57
2023-03-15T11:19:42.076Z,11.62
2023-03-15T11:22:13.868Z,11.68
2023-03-15T11:24:40.967Z,11.73
2023-03-15T11:27:14.299Z,11.81
2023-03-15T11:29:47.726Z,11.87
2023-03-15T11:32:19.806Z,11.90
2023-03-15T11:34:58.066Z,12.36
2023-03-15T11:37:34.871Z,13.65
2023-03-15T11:40:14.032Z,15.11
2023-03-15T11:42:59.702Z,15.40
2023-03-15T11:45:39.528Z,15.26
2023-03-15T11:48:16.370Z,15.64
2023-03-15T11:50:44.090Z,15.36
2023-03-15T11:53:17.037Z,15.06
2023-03-15T11:55:49.857Z,14.79
2023-03-15T11:58:32.907Z,14.59
2023-03-15T12:01:03.764Z,14.48
2023-03-15T12:03:38.573Z,14.41
2023-03-15T12:06:37.859Z,14.20
2023-03-15T12:09:45.737Z,13.94
2023-03-15T12:12:36.506Z,13.72
2023-03-15T12:15:15.874Z,13.55
2023-03-15T12:17:49.048Z,13.43
2023-03-15T12:20:27.705Z,13.38
2023-03-15T12:23:18.104Z,13.46
2023-03-15T12:25:55.512Z,13.82
2023-03-15T12:28:30.292Z,14.32
2023-03-15T12:31:01.744Z,14.69
2023-03-15T12:33:32.457Z,15.31
2023-03-15T12:36:03.508Z,15.25
2023-03-15T12:38:38.151Z,15.53
2023-03-15T12:41:30.943Z,16.09
2023-03-15T12:44:36.410Z,16.46
2023-03-15T12:47:05.704Z,17.06
2023-03-15T12:49:41.025Z,17.55
2023-03-15T12:52:35.848Z,18.29
2023-03-15T12:55:15.272Z,18.76
2023-03-15T12:57:50.192Z,19.42
2023-03-15T13:00:23.336Z,19.97
2023-03-15T13:03:01.529Z,20.37
2023-03-15T13:05:36.141Z,20.64
2023-03-15T13:08:17.490Z,20.39
2023-03-15T13:11:05.921Z,20.01
2023-03-15T13:14:05.568Z,19.62
2023-03-15T13:16:44.504Z,19.61
2023-03-15T13:19:22.816Z,19.69
2023-03-15T13:22:12.190Z,19.76
2023-03-15T13:24:57.070Z,19.53
2023-03-15T13:27:46.767Z,18.83
2023-03-15T13:30:37.735Z,18.27
2023-03-15T13:33:23.627Z,17.88
2023-03-15T13:35:58.576Z,17.67
2023-03-15T13:38:33.302Z,17.30
2023-03-15T13:41:04.189Z,17.50
2023-03-15T13:43:34.793Z,16.94
2023-03-15T13:46:02.160Z,17.14
2023-03-15T13:48:33.425Z,17.99
2023-03-15T13:51:07.763Z,18.82
2023-03-15T13:53:49.980Z,19.44
2023-03-15T13:56:21.500Z,19.81
2023-03-15T13:58:50.190Z,20.21
2023-03-15T14:01:18.366Z,20.64
2023-03-15T14:03:56.510Z,21.04
2023-03-15T14:06:26.815Z,21.34
2023-03-15T14:09:00.578Z,21.77
2023-03-15T14:11:37.093Z,22.10
2023-03-15T14:14:23.220Z,22.35
2023-03-15T14:17:04.189Z,22.51
2023-03-15T14:19:36.631Z,22.95
2023-03-15T14:22:15.384Z,23.23
2023-03-15T14:24:46.599Z,23.32
2023-03-15T14:27:19.002Z,23.41
2023-03-15T14:29:49.323Z,23.57
2023-03-15T14:32:28.626Z,23.69
2023-03-15T14:35:03.961Z,23.38
2023-03-15T14:37:37.781Z,22.53
2023-03-15T14:40:16.016Z,22.03
2023-03-15T14:42:43.256Z,22.02
2023-03-15T14:45:11.110Z,21.99
2023-03-15T14:47:55.604Z,21.73
2023-03-15T14:50:29.194Z,21.32
2023-03-15T14:52:58.867Z,21.03
2023-03-15T14:55:30.923Z,20.93
2023-03-15T14:57:58.005Z,20.97
2023-03-15T15:00:27.075Z,20.76
2023-03-15T15:02:57.489Z,20.19
2023-03-15T15:05:29.129Z,19.69
2023-03-15T15:08:03.981Z,19.64
2023-03-15T15:10:32.074Z,19.97
2023-03-15T15:13:06.034Z,19.94
2023-03-15T15:15:47.445Z,19.99
2023-03-15T15:18:19.910Z,19.64
2023-03-15T15:20:51.291Z,19.69
2023-03-15T15:23:21.927Z,19.80
2023-03-15T15:25:53.280Z,19.85
2023-03-15T15:28:33.384Z,19.93
2023-03-15T15:31:01.994Z,19.94
2023-03-15T15:33:28.965Z,19.81
2023-03-15T15:35:58.273Z,19.63
2023-03-15T15:38:33.089Z,19.40
2023-03-15T15:41:00.194Z,19.01
2023-03-15T15:43:27.340Z,18.60
2023-03-15T15:45:54.544Z,18.19
2023-03-15T15:48:22.151Z,17.74
2023-03-15T15:50:49.206Z,17.33
2023-03-15T15:53:18.446Z,17.03
2023-03-15T15:55:46.345Z,16.80
2023-03-15T15:58:15.227Z,16.56
2023-03-15T16:00:42.116Z,16.38
2023-03-15T16:03:16.264Z,16.22
2023-03-15T16:05:43.741Z,16.05
2023-03-15T16:08:24.718Z,15.78
2023-03-15T16:10:52.178Z,15.60
2023-03-15T16:13:19.576Z,15.42
2023-03-15T16:15:46.556Z,15.25
2023-03-15T16:18:13.816Z,15.11
2023-03-15T16:20:41.605Z,14.96
2023-03-15T16:23:19.470Z,14.83
2023-03-15T16:25:53.822Z,14.74
2023-03-15T16:28:21.115Z,14.62
2023-03-15T16:30:48.556Z,14.56
2023-03-15T16:33:21.428Z,14.45
2023-03-15T16:35:50.046Z,14.37
2023-03-15T16:38:24.261Z,14.27
2023-03-15T16:40:53.236Z,14.19
2023-03-15T16:43:20.762Z,14.09
2023-03-15T16:45:48.564Z,14.03
2023-03-15T16:48:15.525Z,13.99
2023-03-15T16:50:44.186Z,13.94
2023-03-15T16:53:13.426Z,13.88
2023-03-15T16:55:41.131Z,13.83
2023-03-15T16:58:19.859Z,13.71
2023-03-15T17:00:48.141Z,13.66
2023-03-15T17:03:16.982Z,13.54
2023-03-15T17:05:47.343Z,13.44
2023-03-15T17:08:19.681Z,13.39
2023-03-15T17:10:47.629Z,13.34
2023-03-15T17:13:23.243Z,13.25
2023-03-15T17:15:50.245Z,13.16
2023-03-15T17:18:21.593Z,13.15
2023-03-15T17:20:50.227Z,13.13
2023-03-15T17:23:20.777Z,13.09
2023-03-15T17:25:49.270Z,13.11
2023-03-15T17:28:17.760Z,13.10
2023-03-15T17:30:44.852Z,12.97
2023-03-15T17:33:12.297Z,12.93
2023-03-15T17:35:44.117Z,12.90
2023-03-15T17:38:18.641Z,12.85
2023-03-15T17:40:46.318Z,12.84
2023-03-15T17:43:15.878Z,12.79
2023-03-15T17:45:44.549Z,12.73
2023-03-15T17:48:12.179Z,12.68
2023-03-15T17:50:43.873Z,12.66
2023-03-15T17:53:16.532Z,12.62
2023-03-15T17:55:44.081Z,12.59
2023-03-15T17:58:17.444Z,12.53
2023-03-15T18:00:48.339Z,12.48
2023-03-15T18:03:17.442Z,12.50
2023-03-15T18:05:45.545Z,12.50
2023-03-15T18:08:18.220Z,12.48
2023-03-15T18:10:47.809Z,12.42
2023-03-15T18:13:17.951Z,12.36
2023-03-15T18:15:46.395Z,12.31
2023-03-15T18:18:13.754Z,12.23
2023-03-15T18:20:41.059Z,12.17
2023-03-15T18:23:12.577Z,12.14
2023-03-15T18:25:40.781Z,12.15
2023-03-15T18:28:07.749Z,12.17
2023-03-15T18:30:34.810Z,12.14
2023-03-15T18:33:05.644Z,12.07
2023-03-15T18:35:36.381Z,11.99
2023-03-15T18:38:03.973Z,11.93
2023-03-15T18:40:33.604Z,11.88
2023-03-15T18:43:01.331Z,11.78
2023-03-15T18:45:31.768Z,11.67
2023-03-15T18:48:02.129Z,11.57
2023-03-15T18:50:30.827Z,11.44
2023-03-15T18:52:58.196Z,11.31
2023-03-15T18:55:26.262Z,11.24
2023-03-15T18:57:56.401Z,11.18
2023-03-15T19:00:27.188Z,11.11
2023-03-15T19:02:57.040Z,11.07
2023-03-15T19:05:26.048Z,11.04
2023-03-15T19:07:54.488Z,11.02
2023-03-15T19:10:25.446Z,10.98
2023-03-15T19:12:53.888Z,10.95
2023-03-15T19:15:22.891Z,10.99
2023-03-15T19:17:54.455Z,11.04
2023-03-15T19:20:23.490Z,11.11
2023-03-15T19:22:51.797Z,11.13
2023-03-15T19:25:21.077Z,11.17
2023-03-15T19:27:49.417Z,11.19
2023-03-15T19:30:21.025Z,11.21
2023-03-15T19:32:49.969Z,11.20
2023-03-15T19:35:19.366Z,11.19
2023-03-15T19:37:48.091Z,11.18
2023-03-15T19:40:17.387Z,11.20
2023-03-15T19:42:48.470Z,11.21
2023-03-15T19:45:18.216Z,11.22
2023-03-15T19:47:45.436Z,11.24
2023-03-15T19:50:14.507Z,11.25
2023-03-15T19:52:46.062Z,11.23
2023-03-15T19:55:15.578Z,11.19
2023-03-15T19:57:43.455Z,11.12
2023-03-15T20:00:15.940Z,11.04
2023-03-15T20:02:43.755Z,10.97
2023-03-15T20:05:15.076Z,10.92
2023-03-15T20:07:43.306Z,10.89
2023-03-15T20:10:16.257Z,10.85
2023-03-15T20:12:45.382Z,10.77
2023-03-15T20:15:18.476Z,10.71
2023-03-15T20:17:46.041Z,10.71
2023-03-15T20:20:14.510Z,10.67
2023-03-15T20:22:45.434Z,10.66
2023-03-15T20:25:14.371Z,10.66
2023-03-15T20:27:41.991Z,10.67
2023-03-15T20:30:14.894Z,10.68
2023-03-15T20:32:42.947Z,10.69
2023-03-15T20:35:11.008Z,10.72
2023-03-15T20:37:40.804Z,10.73
2023-03-15T20:40:11.072Z,10.67
2023-03-15T20:42:38.509Z,10.58
2023-03-15T20:45:07.840Z,10.50
2023-03-15T20:47:37.829Z,10.47
2023-03-15T20:50:05.474Z,10.49
2023-03-15T20:52:34.192Z,10.50
2023-03-15T20:55:03.532Z,10.44
2023-03-15T20:57:31.153Z,10.39
2023-03-15T20:59:58.045Z,10.30
2023-03-15T21:02:25.053Z,10.23
2023-03-15T21:04:53.303Z,10.20
2023-03-15T21:07:20.859Z,10.18
2023-03-15T21:09:48.315Z,10.18
2023-03-15T21:12:15.682Z,10.18
2023-03-15T21:14:43.173Z,10.17
2023-03-15T21:17:10.343Z,10.15
2023-03-15T21:19:37.787Z,10.11
2023-03-15T21:22:06.207Z,10.03
2023-03-15T21:24:40.596Z,9.98
2023-03-15T21:27:11.354Z,9.88
2023-03-15T21:29:39.953Z,9.79
2023-03-15T21:32:08.106Z,9.71
2023-03-15T21:34:35.787Z,9.66
2023-03-15T21:37:02.764Z,9.61
2023-03-15T21:39:31.014Z,9.53
2023-03-15T21:41:57.907Z,9.48
2023-03-15T21:44:25.155Z,9.43
2023-03-15T21:46:52.943Z,9.38
2023-03-15T21:49:19.869Z,9.36
2023-03-15T21:51:46.982Z,9.29
2023-03-15T21:54:14.269Z,9.17
2023-03-15T21:56:42.488Z,9.07
2023-03-15T21:59:10.346Z,8.99
2023-03-15T22:01:37.562Z,8.95
2023-03-15T22:04:04.722Z,8.92
2023-03-15T22:06:32.243Z,8.91
2023-03-15T22:08:59.176Z,8.88
2023-03-15T22:11:26.107Z,8.83
2023-03-15T22:13:54.351Z,8.80
2023-03-15T22:16:21.377Z,8.74
2023-03-15T22:18:48.375Z,8.71
2023-03-15T22:21:15.254Z,8.69
2023-03-15T22:23:42.167Z,8.67
2023-03-15T22:26:09.137Z,8.68
2023-03-15T22:28:36.222Z,8.68
2023-03-15T22:31:04.621Z,8.65
2023-03-15T22:33:31.869Z,8.58
2023-03-15T22:35:59.415Z,8.50
2023-03-15T22:38:26.584Z,8.44
2023-03-15T22:41:02.642Z,8.40
2023-03-15T22:43:29.873Z,8.37
2023-03-15T22:45:56.817Z,8.27
2023-03-15T22:48:25.962Z,8.17
2023-03-15T22:50:58.452Z,8.12
2023-03-15T22:53:25.598Z,8.10
2023-03-15T22:55:53.031Z,8.07
2023-03-15T22:58:20.355Z,8.05
2023-03-15T23:00:48.555Z,8.04
2023-03-15T23:03:16.167Z,8.02
2023-03-15T23:05:44.610Z,8.01
2023-03-15T23:08:11.620Z,8.03
2023-03-15T23:10:38.665Z,8.04
2023-03-15T23:13:06.059Z,8.00
2023-03-15T23:15:33.343Z,7.95
2023-03-15T23:18:01.770Z,7.95
2023-03-15T23:20:29.358Z,7.93
2023-03-15T23:22:58.451Z,7.96
2023-03-15T23:25:29.416Z,7.94
2023-03-15T23:27:57.160Z,7.94
2023-03-15T23:30:24.128Z,7.96
2023-03-15T23:32:57.397Z,7.97
2023-03-15T23:35:25.072Z,7.96
2023-03-15T23:37:52.924Z,7.98
2023-03-15T23:40:21.894Z,7.94
2023-03-15T23:42:58.556Z,7.93
2023-03-15T23:45:27.582Z,7.91
2023-03-15T23:47:54.899Z,7.95
2023-03-15T23:50:25.714Z,7.98
2023-03-15T23:52:54.565Z,7.98
2023-03-15T23:55:23.830Z,7.96
2023-03-15T23:57:53.848Z,7.96
